createdAt,value
2023-03-30T00:04:55.139Z,30.42
2023-03-30T00:09:58.691Z,30.52
2023-03-30T00:15:00.964Z,28.70
2023-03-30T00:20:05.632Z,28.98
2023-03-30T00:25:10.641Z,26.73
2023-03-30T00:30:16.133Z,27.30
2023-03-30T00:35:18.415Z,27.88
2023-03-30T00:40:21.878Z,26.63
2023-03-30T00:45:31.667Z,25.50
2023-03-30T00:51:10.918Z,28.58
2023-03-30T00:56:16.682Z,25.42
2023-03-30T01:01:25.988Z,29.42
2023-03-30T01:06:30.365Z,25.60
2023-03-30T01:11:32.564Z,25.33
2023-03-30T01:16:40.725Z,24.35
2023-03-30T01:22:01.295Z,23.60
2023-03-30T01:27:25.268Z,24.42
2023-03-30T01:32:43.539Z,20.35
2023-03-30T01:38:20.860Z,20.98
2023-03-30T01:43:38.526Z,20.80
2023-03-30T01:48:45.945Z,19.83
2023-03-30T01:54:05.676Z,21.05
2023-03-30T01:59:17.202Z,21.25
2023-03-30T02:04:22.991Z,17.65
2023-03-30T02:09:27.745Z,19.88
2023-03-30T02:14:34.033Z,20.08
2023-03-30T02:19:38.267Z,17.90
2023-03-30T02:24:42.196Z,16.52
2023-03-30T02:29:46.273Z,18.60
2023-03-30T02:35:11.093Z,17.48
2023-03-30T02:40:34.026Z,16.63
2023-03-30T02:45:44.263Z,17.20
2023-03-30T02:50:51.891Z,15.93
2023-03-30T02:56:58.280Z,16.90
2023-03-30T03:02:22.070Z,15.00
2023-03-30T03:07:34.039Z,15.90
2023-03-30T03:12:37.286Z,13.30
2023-03-30T03:17:39.553Z,12.40
2023-03-30T03:22:43.073Z,10.68
2023-03-30T03:27:46.228Z,10.18
2023-03-30T03:32:57.615Z,10.48
2023-03-30T03:38:01.910Z,14.20
2023-03-30T03:43:04.381Z,10.70
2023-03-30T03:48:07.340Z,10.18
2023-03-30T03:53:16.446Z,9.90
2023-03-30T03:58:19.156Z,11.52
2023-03-30T04:03:21.586Z,10.10
2023-03-30T04:08:25.896Z,10.23
2023-03-30T04:13:29.185Z,13.38
2023-03-30T04:18:35.241Z,28.92
2023-03-30T04:23:56.342Z,16.42
2023-03-30T04:29:24.766Z,19.52
2023-03-30T04:34:49.725Z,11.02
2023-03-30T04:40:13.613Z,11.27
2023-03-30T04:45:34.985Z,10.52
2023-03-30T04:51:03.374Z,9.20
2023-03-30T04:56:35.085Z,9.07
2023-03-30T05:01:40.249Z,9.73
2023-03-30T05:07:03.259Z,7.85
2023-03-30T05:12:24.230Z,8.48
2023-03-30T05:17:40.257Z,9.00
2023-03-30T05:22:51.828Z,7.65
2023-03-30T05:28:14.036Z,9.38
2023-03-30T05:33:22.421Z,9.23
2023-03-30T05:38:53.441Z,8.85
2023-03-30T05:44:08.564Z,10.23
2023-03-30T05:49:40.024Z,9.30
2023-03-30T05:54:50.008Z,9.20
2023-03-30T06:00:15.323Z,9.57
2023-03-30T06:05:33.987Z,8.95
2023-03-30T06:10:37.254Z,6.90
2023-03-30T06:15:42.327Z,10.32
2023-03-30T06:20:51.919Z,9.68
2023-03-30T06:25:55.734Z,6.80
2023-03-30T06:31:08.717Z,7.38
2023-03-30T06:36:14.480Z,9.40
2023-03-30T06:41:18.488Z,9.40
2023-03-30T06:46:24.025Z,7.50
2023-03-30T06:51:27.708Z,9.18
2023-03-30T06:56:32.151Z,10.13
2023-03-30T07:01:44.771Z,7.13
2023-03-30T07:07:16.216Z,8.40
2023-03-30T07:12:18.646Z,10.90
2023-03-30T07:17:23.909Z,8.70
2023-03-30T07:22:28.345Z,7.75
2023-03-30T07:27:30.713Z,6.00
2023-03-30T07:32:34.971Z,8.98
2023-03-30T07:37:40.355Z,7.53
2023-03-30T07:42:42.825Z,8.20
2023-03-30T07:47:45.315Z,7.07
2023-03-30T07:52:47.903Z,8.82
2023-03-30T07:57:50.575Z,7.35
2023-03-30T08:02:53.392Z,5.43
2023-03-30T08:07:56.093Z,8.55
2023-03-30T08:13:04.258Z,7.13
2023-03-30T08:18:08.520Z,7.50
2023-03-30T08:23:12.170Z,6.28
2023-03-30T08:28:14.400Z,7.38
2023-03-30T08:33:17.178Z,10.57
2023-03-30T08:38:19.546Z,7.40
2023-03-30T08:43:28.647Z,5.30
2023-03-30T08:48:38.040Z,8.57
2023-03-30T08:53:41.335Z,7.20
2023-03-30T08:59:05.359Z,9.18
2023-03-30T09:04:26.085Z,9.43
2023-03-30T09:09:31.033Z,8.48
2023-03-30T09:14:39.601Z,7.93
2023-03-30T09:19:57.176Z,7.88
2023-03-30T09:24:59.935Z,8.48
2023-03-30T09:30:32.148Z,10.20
2023-03-30T09:41:01.137Z,6.93
2023-03-30T09:46:07.804Z,9.43
2023-03-30T09:51:23.730Z,10.45
2023-03-30T09:56:34.946Z,8.23
2023-03-30T10:01:40.632Z,9.73
2023-03-30T10:06:50.478Z,10.77
2023-03-30T10:11:55.210Z,11.95
2023-03-30T10:16:59.114Z,9.57
2023-03-30T10:22:04.671Z,12.57
2023-03-30T10:27:13.823Z,11.18
2023-03-30T10:32:19.138Z,11.65
2023-03-30T10:37:41.047Z,14.50
2023-03-30T10:47:57.408Z,10.25
2023-03-30T10:53:12.628Z,9.15
2023-03-30T10:58:30.200Z,8.98
2023-03-30T11:03:33.426Z,9.85
2023-03-30T11:08:44.279Z,12.98
2023-03-30T11:13:53.003Z,14.27
2023-03-30T11:19:18.394Z,11.88
2023-03-30T11:24:22.054Z,16.20
2023-03-30T11:29:38.959Z,13.77
2023-03-30T11:34:47.034Z,13.65
2023-03-30T11:39:56.996Z,15.60
2023-03-30T11:45:01.896Z,10.68
2023-03-30T11:50:30.055Z,12.45
2023-03-30T11:55:41.674Z,9.23
2023-03-30T12:01:03.351Z,9.32
2023-03-30T12:06:17.886Z,8.05
2023-03-30T12:11:38.846Z,5.95
2023-03-30T12:16:49.226Z,9.57
2023-03-30T12:22:04.732Z,8.13
2023-03-30T12:27:11.557Z,8.25
2023-03-30T12:32:29.254Z,8.70
2023-03-30T12:37:48.297Z,12.18
2023-03-30T12:43:03.326Z,11.45
2023-03-30T12:48:32.203Z,12.00
2023-03-30T12:54:10.021Z,11.90
2023-03-30T13:00:09.516Z,10.90
2023-03-30T13:05:41.471Z,11.73
2023-03-30T13:10:43.947Z,10.00
2023-03-30T13:15:49.919Z,11.07
2023-03-30T13:20:54.815Z,11.63
2023-03-30T13:26:33.876Z,8.95
2023-03-30T13:31:56.313Z,9.30
2023-03-30T13:37:06.859Z,8.02
2023-03-30T13:42:28.337Z,11.93
2023-03-30T13:47:48.229Z,10.05
2023-03-30T13:52:52.726Z,9.95
2023-03-30T13:58:01.497Z,7.65
2023-03-30T14:03:27.336Z,13.43
2023-03-30T14:08:34.470Z,11.02
2023-03-30T14:13:37.746Z,9.15
2023-03-30T14:18:40.366Z,12.27
2023-03-30T14:23:47.200Z,11.88
2023-03-30T14:28:50.861Z,10.88
2023-03-30T14:33:53.438Z,10.60
2023-03-30T14:38:57.748Z,10.20
2023-03-30T14:44:04.535Z,8.70
2023-03-30T14:49:08.091Z,11.93
2023-03-30T14:54:19.668Z,11.75
2023-03-30T14:59:22.815Z,10.93
2023-03-30T15:04:29.254Z,12.23
2023-03-30T15:09:38.172Z,10.43
2023-03-30T15:14:41.106Z,10.70
2023-03-30T15:19:43.968Z,13.20
2023-03-30T15:24:46.229Z,15.38
2023-03-30T15:29:48.478Z,12.23
2023-03-30T15:35:03.217Z,11.15
2023-03-30T15:40:28.610Z,11.90
2023-03-30T15:45:36.479Z,16.05
2023-03-30T15:50:39.183Z,12.88
2023-03-30T15:55:41.596Z,16.45
2023-03-30T16:00:44.842Z,18.02
2023-03-30T16:05:47.032Z,15.45
2023-03-30T16:10:49.317Z,15.52
2023-03-30T16:15:52.872Z,15.80
2023-03-30T16:20:55.515Z,16.73
2023-03-30T16:25:58.499Z,13.23
2023-03-30T16:31:04.345Z,12.50
2023-03-30T16:36:06.961Z,14.57
2023-03-30T16:41:22.676Z,15.15
2023-03-30T16:46:24.996Z,16.40
2023-03-30T16:51:31.264Z,15.50
2023-03-30T16:56:33.598Z,15.85
2023-03-30T17:01:36.857Z,19.02
2023-03-30T17:06:39.072Z,19.00
2023-03-30T17:11:41.490Z,25.15
2023-03-30T17:16:43.865Z,17.58
2023-03-30T17:21:46.476Z,19.77
2023-03-30T17:26:48.733Z,18.60
2023-03-30T17:31:50.916Z,20.20
2023-03-30T17:36:53.229Z,18.88
2023-03-30T17:41:55.703Z,17.58
2023-03-30T17:47:00.586Z,17.50
2023-03-30T17:52:02.805Z,16.33
2023-03-30T17:57:05.117Z,19.88
2023-03-30T18:02:08.120Z,16.67
2023-03-30T18:07:12.594Z,21.98
2023-03-30T18:12:14.980Z,20.95
2023-03-30T18:17:18.194Z,25.25
2023-03-30T18:22:20.591Z,23.60
2023-03-30T18:27:22.787Z,20.83
2023-03-30T18:32:31.337Z,21.42
2023-03-30T18:37:43.386Z,21.58
2023-03-30T18:42:45.964Z,22.88
2023-03-30T18:47:48.389Z,20.95
2023-03-30T18:52:50.865Z,23.67
2023-03-30T18:57:53.047Z,21.83
2023-03-30T19:02:56.882Z,16.88
2023-03-30T19:07:59.228Z,22.73
2023-03-30T19:13:04.192Z,25.48
2023-03-30T19:18:07.019Z,22.75
2023-03-30T19:23:12.693Z,20.20
2023-03-30T19:28:15.596Z,20.38
2023-03-30T19:33:19.944Z,24.45
2023-03-30T19:38:22.125Z,19.23
2023-03-30T19:43:24.466Z,23.17
2023-03-30T19:48:27.485Z,22.73
2023-03-30T19:53:29.688Z,27.98
2023-03-30T19:58:32.013Z,22.95
2023-03-30T20:03:37.959Z,21.65
2023-03-30T20:08:40.786Z,22.00
2023-03-30T20:13:46.074Z,26.52
2023-03-30T20:18:50.824Z,26.58
2023-03-30T20:23:53.064Z,21.63
2023-03-30T20:28:56.782Z,24.00
2023-03-30T20:33:59.180Z,20.42
2023-03-30T20:39:01.454Z,20.50
2023-03-30T20:44:13.460Z,22.23
2023-03-30T20:49:15.981Z,19.52
2023-03-30T20:54:18.232Z,20.58
2023-03-30T20:59:21.390Z,20.10
2023-03-30T21:04:23.587Z,18.25
2023-03-30T21:09:27.300Z,17.13
2023-03-30T21:14:29.681Z,17.50
2023-03-30T21:19:32.220Z,15.38
2023-03-30T21:24:34.983Z,16.83
2023-03-30T21:29:37.372Z,19.55
2023-03-30T21:34:39.647Z,21.42
2023-03-30T21:39:42.008Z,21.48
2023-03-30T21:44:44.241Z,15.25
2023-03-30T21:49:46.536Z,19.00
2023-03-30T21:54:48.772Z,15.32
2023-03-30T21:59:51.206Z,13.32
2023-03-30T22:04:53.398Z,13.02
2023-03-30T22:09:58.150Z,15.10
2023-03-30T22:15:00.579Z,13.38
2023-03-30T22:20:03.022Z,18.60
2023-03-30T22:25:06.155Z,13.05
2023-03-30T22:30:08.858Z,20.30
2023-03-30T22:35:11.136Z,12.23
2023-03-30T22:40:13.764Z,17.42
2023-03-30T22:45:16.296Z,18.40
2023-03-30T22:50:18.494Z,12.60
2023-03-30T22:55:20.871Z,16.48
2023-03-30T23:00:23.342Z,16.65
2023-03-30T23:05:25.708Z,14.07
2023-03-30T23:10:33.767Z,16.77
2023-03-30T23:15:36.607Z,14.45
2023-03-30T23:20:38.765Z,18.63
2023-03-30T23:25:49.515Z,16.63
2023-03-30T23:30:51.980Z,14.88
2023-03-30T23:35:54.193Z,15.52
2023-03-30T23:40:57.954Z,19.67
2023-03-30T23:46:00.239Z,16.98
2023-03-30T23:51:02.603Z,17.88
2023-03-30T23:56:06.840Z,10.85
